Time;durP1;ratioP1;P1;durP2;ratioP2;P2;SDS_P1;SDS_P2;PMS_P1;PMS_P2;Temp;Humidity;BMP_temperature;BMP_pressure;BME280_temperature;BME280_humidity;BME280_pressure;Samples;Min_cycle;Max_cycle;Signal;HPM_P1;HPM_P2
2023/04/04 05:02:28;;;;;;;;;8.33;7.33;;;;;;;;5015799;22;45197;-55
2023/04/04 05:04:53;;;;;;;;;8.33;7.00;;;;;;;;4999807;28;45347;-56
2023/04/04 05:07:19;;;;;;;;;6.33;4.00;;;;;;;;4999516;28;46195;-57
2023/04/04 05:09:44;;;;;;;;;10.00;7.33;;;;;;;;5001410;28;45458;-56
2023/04/04 05:12:09;;;;;;;;;7.00;6.00;;;;;;;;5002590;28;45423;-56
2023/04/04 05:14:35;;;;;;;;;8.00;7.00;;;;;;;;4984169;28;45365;-56
2023/04/04 05:17:00;;;;;;;;;6.67;5.67;;;;;;;;4985249;28;47023;-57
2023/04/04 05:19:26;;;;;;;;;8.25;8.25;;;;;;;;5002012;28;45339;-55
2023/04/04 05:21:51;;;;;;;;;8.75;7.75;;;;;;;;5003597;28;45406;-57
2023/04/04 05:24:16;;;;;;;;;6.67;5.00;;;;;;;;4999600;28;45627;-57
2023/04/04 05:26:41;;;;;;;;;8.67;7.67;;;;;;;;5006416;28;45455;-57
2023/04/04 05:29:07;;;;;;;;;8.25;5.50;;;;;;;;5014863;28;45461;-56
2023/04/04 05:31:32;;;;;;;;;8.00;8.00;;;;;;;;5014730;28;45379;-55
2023/04/04 05:33:57;;;;;;;;;8.00;8.00;;;;;;;;4985805;28;45424;-55
2023/04/04 05:36:22;;;;;;;;;9.00;7.00;;;;;;;;5009159;28;45938;-54
2023/04/04 05:38:47;;;;;;;;;12.25;9.00;;;;;;;;5007457;28;45329;-54
2023/04/04 05:41:12;;;;;;;;;9.33;6.33;;;;;;;;5016945;28;45395;-56
2023/04/04 05:43:38;;;;;;;;;8.75;8.25;;;;;;;;5004263;28;45315;-59
2023/04/04 05:46:03;;;;;;;;;7.50;7.50;;;;;;;;4980522;28;47002;-58
2023/04/04 05:48:28;;;;;;;;;7.00;7.00;;;;;;;;5000702;28;45293;-58
2023/04/04 05:50:53;;;;;;;;;9.25;8.25;;;;;;;;4992134;28;45469;-59
2023/04/04 05:53:19;;;;;;;;;10.50;8.50;;;;;;;;4974187;28;45511;-59
2023/04/04 05:55:45;;;;;;;;;8.00;8.00;;;;;;;;4973557;28;46857;-57
2023/04/04 05:58:11;;;;;;;;;10.00;10.00;;;;;;;;4982636;28;45347;-59
2023/04/04 06:00:37;;;;;;;;;8.00;8.00;;;;;;;;4979627;28;45403;-59
2023/04/04 06:03:03;;;;;;;;;12.25;7.50;;;;;;;;4971717;28;45638;-59
2023/04/04 06:05:29;;;;;;;;;8.00;7.00;;;;;;;;4979241;28;46958;-59
2023/04/04 06:07:54;;;;;;;;;12.67;10.33;;;;;;;;4980409;28;45540;-59
2023/04/04 06:10:19;;;;;;;;;12.00;8.33;;;;;;;;4980696;28;45526;-59
2023/04/04 06:12:44;;;;;;;;;9.50;7.00;;;;;;;;4982399;28;45276;-59
2023/04/04 06:15:10;;;;;;;;;11.50;10.25;;;;;;;;4979757;28;45230;-54
2023/04/04 06:17:35;;;;;;;;;9.67;7.67;;;;;;;;4981072;28;45360;-55
2023/04/04 06:20:00;;;;;;;;;13.00;8.33;;;;;;;;4981337;28;45260;-59
2023/04/04 06:22:25;;;;;;;;;11.00;6.67;;;;;;;;4981854;28;45285;-53
2023/04/04 06:24:50;;;;;;;;;12.75;7.00;;;;;;;;4988153;28;46045;-54
2023/04/04 06:27:16;;;;;;;;;9.00;7.33;;;;;;;;4997762;28;45453;-54
2023/04/04 06:29:41;;;;;;;;;9.25;7.00;;;;;;;;4993141;28;45361;-53
2023/04/04 06:32:06;;;;;;;;;8.00;7.00;;;;;;;;4984637;28;45435;-53
2023/04/04 06:34:32;;;;;;;;;11.00;9.00;;;;;;;;4987371;28;46644;-51
2023/04/04 06:36:57;;;;;;;;;11.00;7.00;;;;;;;;4976773;28;45514;-53
2023/04/04 06:39:22;;;;;;;;;7.00;6.67;;;;;;;;4978033;28;45451;-51
2023/04/04 06:41:47;;;;;;;;;12.67;10.67;;;;;;;;4971698;28;45359;-54
2023/04/04 06:44:13;;;;;;;;;8.00;8.00;;;;;;;;4978577;28;45558;-56
2023/04/04 06:46:38;;;;;;;;;11.00;9.33;;;;;;;;4977659;28;45340;-56
2023/04/04 06:49:04;;;;;;;;;13.33;12.00;;;;;;;;4969832;28;45342;-57
2023/04/04 06:51:30;;;;;;;;;13.00;11.00;;;;;;;;4978222;28;45649;-56
2023/04/04 06:53:55;;;;;;;;;10.33;8.67;;;;;;;;4980115;28;45592;-56
2023/04/04 06:56:21;;;;;;;;;9.00;7.67;;;;;;;;4979938;28;45665;-53
2023/04/04 06:58:46;;;;;;;;;9.67;9.67;;;;;;;;4985579;28;45384;-52
2023/04/04 07:01:12;;;;;;;;;10.00;7.00;;;;;;;;4993660;28;45413;-54
2023/04/04 07:03:37;;;;;;;;;7.33;7.33;;;;;;;;4990638;28;47888;-50
2023/04/04 07:06:03;;;;;;;;;11.00;8.33;;;;;;;;5007417;28;45383;-52
2023/04/04 07:08:28;;;;;;;;;9.33;6.33;;;;;;;;5009278;28;45409;-53
2023/04/04 07:10:54;;;;;;;;;8.00;8.00;;;;;;;;4990130;28;45322;-54
2023/04/04 07:13:19;;;;;;;;;9.00;7.00;;;;;;;;5006546;28;45360;-52
2023/04/04 07:15:47;;;;;;;;;10.67;8.67;;;;;;;;5008015;28;45433;-51
2023/04/04 07:18:12;;;;;;;;;7.00;7.00;;;;;;;;5005210;28;45476;-53
2023/04/04 07:20:37;;;;;;;;;8.67;8.67;;;;;;;;5008862;28;46410;-52
2023/04/04 07:23:03;;;;;;;;;8.67;8.00;;;;;;;;5008887;28;45459;-51
2023/04/04 07:25:28;;;;;;;;;7.33;6.33;;;;;;;;5008539;28;45558;-54
2023/04/04 07:27:54;;;;;;;;;10.00;10.00;;;;;;;;5009830;28;45423;-52
2023/04/04 07:30:21;;;;;;;;;8.67;7.00;;;;;;;;5008581;28;45736;-53
2023/04/04 07:32:46;;;;;;;;;8.00;8.00;;;;;;;;4992031;28;47174;-56
2023/04/04 07:35:12;;;;;;;;;10.00;6.67;;;;;;;;5009037;28;45704;-52
2023/04/04 07:37:38;;;;;;;;;11.33;8.00;;;;;;;;5010515;28;45515;-51
2023/04/04 07:40:04;;;;;;;;;8.33;7.67;;;;;;;;5002075;28;45472;-50
2023/04/04 07:42:30;;;;;;;;;8.00;6.00;;;;;;;;5009692;28;47242;-53
2023/04/04 07:44:55;;;;;;;;;9.00;7.00;;;;;;;;5006908;28;45545;-53
2023/04/04 07:47:21;;;;;;;;;7.33;7.33;;;;;;;;5006099;28;45471;-49
2023/04/04 07:49:46;;;;;;;;;6.00;6.00;;;;;;;;5015885;28;45798;-51
2023/04/04 07:52:12;;;;;;;;;6.00;6.00;;;;;;;;4998169;28;45374;-48
2023/04/04 07:54:39;;;;;;;;;11.00;8.67;;;;;;;;4998433;28;45416;-49
2023/04/04 07:57:04;;;;;;;;;8.33;6.67;;;;;;;;4998586;28;45487;-52
2023/04/04 07:59:30;;;;;;;;;12.67;11.67;;;;;;;;4981506;28;45877;-51
2023/04/04 08:01:56;;;;;;;;;12.67;10.67;;;;;;;;4998758;28;46360;-50
2023/04/04 08:04:21;;;;;;;;;10.00;9.00;;;;;;;;4982977;28;45716;-51
2023/04/04 08:06:46;;;;;;;;;7.33;7.33;;;;;;;;5002691;28;45328;-51
2023/04/04 08:09:11;;;;;;;;;8.33;8.33;;;;;;;;5002292;28;45453;-52
2023/04/04 08:11:36;;;;;;;;;11.67;10.00;;;;;;;;5002112;28;45277;-52
2023/04/04 08:14:02;;;;;;;;;10.00;9.00;;;;;;;;5002430;28;45418;-52
2023/04/04 08:16:27;;;;;;;;;6.00;5.00;;;;;;;;5002311;28;45342;-53
2023/04/04 08:18:52;;;;;;;;;13.00;10.67;;;;;;;;5002928;28;45635;-52
2023/04/04 08:21:18;;;;;;;;;9.00;8.00;;;;;;;;5001771;28;46955;-51
2023/04/04 08:23:43;;;;;;;;;11.00;9.00;;;;;;;;4985576;28;45636;-50
2023/04/04 08:26:10;;;;;;;;;3.00;3.00;;;;;;;;5002187;28;45276;-51
2023/04/04 08:28:35;;;;;;;;;10.00;8.00;;;;;;;;5003721;28;45285;-52
2023/04/04 08:31:00;;;;;;;;;9.00;9.00;;;;;;;;5002166;28;46401;-50
2023/04/04 08:33:26;;;;;;;;;10.67;9.00;;;;;;;;4985451;28;45823;-50
2023/04/04 08:35:52;;;;;;;;;10.00;6.00;;;;;;;;5002666;28;45665;-50
2023/04/04 08:38:17;;;;;;;;;9.67;8.00;;;;;;;;4985390;28;45489;-51
2023/04/04 08:40:48;;;;;;;;;15.67;9.67;;;;;;;;5002032;28;45706;-52
2023/04/04 08:43:14;;;;;;;;;9.67;9.67;;;;;;;;5004172;28;45871;-49
2023/04/04 08:45:40;;;;;;;;;13.00;10.00;;;;;;;;5001345;28;45545;-53
2023/04/04 08:48:07;;;;;;;;;9.33;9.00;;;;;;;;5015126;28;45380;-54
2023/04/04 08:50:34;;;;;;;;;11.67;11.67;;;;;;;;5020698;28;46039;-51
2023/04/04 08:53:03;;;;;;;;;13.00;10.67;;;;;;;;5006138;28;45546;-52
2023/04/04 08:55:28;;;;;;;;;14.33;11.00;;;;;;;;5001358;28;45398;-50
2023/04/04 08:57:54;;;;;;;;;13.00;11.00;;;;;;;;5002233;28;45341;-50
2023/04/04 09:00:21;;;;;;;;;5.00;5.00;;;;;;;;5001054;28;45494;-53
2023/04/04 09:02:52;;;;;;;;;13.33;10.00;;;;;;;;5002510;28;45427;-52
2023/04/04 09:05:18;;;;;;;;;7.33;7.00;;;;;;;;5001386;28;45276;-53
2023/04/04 09:07:44;;;;;;;;;7.00;6.00;;;;;;;;5002082;28;45453;-52
2023/04/04 09:10:10;;;;;;;;;9.33;9.33;;;;;;;;5000833;28;45299;-53
2023/04/04 09:12:36;;;;;;;;;7.00;7.00;;;;;;;;5002383;28;45381;-54
2023/04/04 09:15:04;;;;;;;;;10.67;8.67;;;;;;;;4982243;28;45417;-53
2023/04/04 09:17:30;;;;;;;;;7.33;7.33;;;;;;;;5002630;28;45513;-53
2023/04/04 09:19:55;;;;;;;;;8.67;8.67;;;;;;;;5001546;28;46117;-53
2023/04/04 09:22:20;;;;;;;;;8.00;7.33;;;;;;;;5001509;28;45368;-52
2023/04/04 09:24:47;;;;;;;;;8.67;6.67;;;;;;;;5001645;28;45353;-51
2023/04/04 09:27:14;;;;;;;;;7.00;7.00;;;;;;;;5002830;28;45360;-54
2023/04/04 09:29:40;;;;;;;;;7.00;7.00;;;;;;;;5001650;28;46390;-54
2023/04/04 09:32:09;;;;;;;;;7.00;6.67;;;;;;;;5002296;28;45284;-54
2023/04/04 09:34:34;;;;;;;;;7.00;7.00;;;;;;;;4984486;28;45445;-53
2023/04/04 09:37:02;;;;;;;;;8.00;8.00;;;;;;;;5003248;28;45398;-56
2023/04/04 09:39:27;;;;;;;;;7.00;7.00;;;;;;;;5000230;28;47024;-53
2023/04/04 09:41:52;;;;;;;;;7.00;5.00;;;;;;;;4985856;28;45563;-51
2023/04/04 09:44:18;;;;;;;;;8.00;8.00;;;;;;;;5002486;28;45458;-53
2023/04/04 09:46:44;;;;;;;;;5.00;5.00;;;;;;;;5001743;28;45470;-53
2023/04/04 09:49:10;;;;;;;;;6.67;5.33;;;;;;;;5019778;28;45803;-51
2023/04/04 09:51:37;;;;;;;;;6.00;6.00;;;;;;;;5003802;28;45371;-54
2023/04/04 09:54:02;;;;;;;;;5.00;5.00;;;;;;;;4999608;28;45522;-54
2023/04/04 09:56:28;;;;;;;;;7.67;6.00;;;;;;;;5000575;28;45482;-54
2023/04/04 09:58:53;;;;;;;;;6.33;6.33;;;;;;;;5000359;28;45375;-54
2023/04/04 10:01:18;;;;;;;;;6.00;4.67;;;;;;;;4999955;28;45468;-54
2023/04/04 10:03:49;;;;;;;;;5.33;5.33;;;;;;;;4982608;28;45409;-55
2023/04/04 10:06:15;;;;;;;;;9.00;4.67;;;;;;;;5000411;28;45441;-54
2023/04/04 10:08:41;;;;;;;;;4.67;4.67;;;;;;;;4982565;28;46784;-55
2023/04/04 10:11:07;;;;;;;;;4.33;4.33;;;;;;;;5000401;28;45431;-54
2023/04/04 10:13:34;;;;;;;;;4.00;4.00;;;;;;;;5000736;28;45376;-55
2023/04/04 10:16:01;;;;;;;;;6.00;6.00;;;;;;;;4982976;28;45342;-55
2023/04/04 10:18:27;;;;;;;;;4.25;4.00;;;;;;;;5000625;28;45471;-54
2023/04/04 10:20:53;;;;;;;;;2.25;2.25;;;;;;;;5001299;28;45405;-53
2023/04/04 10:23:20;;;;;;;;;5.50;5.50;;;;;;;;4999962;28;45531;-54
2023/04/04 10:25:45;;;;;;;;;5.33;5.00;;;;;;;;5001077;28;45352;-54
2023/04/04 10:28:11;;;;;;;;;5.33;5.00;;;;;;;;4998753;28;45395;-53
2023/04/04 10:30:39;;;;;;;;;5.00;5.00;;;;;;;;5001197;28;45384;-53
2023/04/04 10:33:06;;;;;;;;;5.75;5.75;;;;;;;;4999535;28;45377;-54
2023/04/04 10:35:33;;;;;;;;;5.75;5.75;;;;;;;;4983517;28;45472;-55
2023/04/04 10:37:58;;;;;;;;;6.50;6.50;;;;;;;;4982333;28;46948;-55
2023/04/04 10:40:26;;;;;;;;;4.00;4.00;;;;;;;;5000336;28;45375;-54
2023/04/04 10:42:52;;;;;;;;;5.75;4.50;;;;;;;;5001155;28;45406;-55
2023/04/04 10:45:18;;;;;;;;;6.25;5.00;;;;;;;;4999277;28;45403;-55
2023/04/04 10:47:44;;;;;;;;;6.00;5.00;;;;;;;;5010285;28;46041;-53
2023/04/04 10:50:10;;;;;;;;;5.00;5.00;;;;;;;;5013967;28;45471;-54
2023/04/04 10:52:38;;;;;;;;;3.00;3.00;;;;;;;;4999147;28;45440;-53
2023/04/04 10:55:05;;;;;;;;;5.75;5.00;;;;;;;;4999349;28;45455;-55
2023/04/04 10:57:31;;;;;;;;;5.00;3.75;;;;;;;;4999681;28;45436;-56
2023/04/04 11:00:05;;;;;;;;;6.25;4.75;;;;;;;;5000313;28;45672;-54
2023/04/04 11:02:44;;;;;;;;;5.00;5.00;;;;;;;;4999059;28;45498;-55
2023/04/04 11:05:11;;;;;;;;;4.00;4.00;;;;;;;;4987678;28;45531;-55
2023/04/04 11:07:39;;;;;;;;;5.75;5.75;;;;;;;;5000254;28;46045;-54
2023/04/04 11:10:12;;;;;;;;;5.00;4.00;;;;;;;;4999295;28;45325;-55
2023/04/04 11:12:43;;;;;;;;;5.00;5.00;;;;;;;;5001084;28;45675;-55
2023/04/04 11:15:09;;;;;;;;;5.00;5.00;;;;;;;;4999596;28;45414;-55
2023/04/04 11:17:50;;;;;;;;;5.00;5.00;;;;;;;;5000346;28;45654;-55
2023/04/04 11:20:16;;;;;;;;;6.75;6.75;;;;;;;;4999759;28;45309;-55
2023/04/04 11:22:42;;;;;;;;;4.75;4.75;;;;;;;;5000634;28;45361;-55
2023/04/04 11:25:26;;;;;;;;;6.00;2.75;;;;;;;;5000104;28;45529;-54
2023/04/04 11:27:55;;;;;;;;;5.00;4.00;;;;;;;;4998513;28;45509;-54
2023/04/04 11:30:20;;;;;;;;;4.67;4.67;;;;;;;;5001677;28;45587;-55
2023/04/04 11:32:49;;;;;;;;;2.25;2.25;;;;;;;;5000736;28;45490;-54
2023/04/04 11:35:15;;;;;;;;;5.00;5.00;;;;;;;;5002363;28;45307;-55
2023/04/04 11:37:58;;;;;;;;;5.00;5.00;;;;;;;;5000336;28;45430;-57
2023/04/04 11:40:33;;;;;;;;;3.00;3.00;;;;;;;;4999769;28;45581;-54
2023/04/04 11:43:02;;;;;;;;;5.00;5.00;;;;;;;;5002896;28;45364;-55
2023/04/04 11:45:28;;;;;;;;;4.50;4.50;;;;;;;;4999723;28;45519;-56
2023/04/04 11:47:54;;;;;;;;;5.75;5.75;;;;;;;;5011203;28;45533;-55
2023/04/04 11:50:19;;;;;;;;;6.00;5.00;;;;;;;;4998008;28;45383;-53
2023/04/04 11:52:45;;;;;;;;;6.25;6.25;;;;;;;;4999361;28;45625;-53
2023/04/04 11:55:14;;;;;;;;;8.33;7.00;;;;;;;;4998613;28;45614;-55
2023/04/04 11:57:40;;;;;;;;;5.67;5.67;;;;;;;;4999884;28;47335;-53
2023/04/04 12:00:07;;;;;;;;;5.33;5.33;;;;;;;;4999937;28;45674;-55
2023/04/04 12:02:33;;;;;;;;;7.33;6.67;;;;;;;;5000356;28;45258;-55
2023/04/04 12:04:59;;;;;;;;;7.67;6.33;;;;;;;;5000308;28;45759;-55
2023/04/04 12:07:25;;;;;;;;;5.33;5.33;;;;;;;;5000021;28;45952;-53
2023/04/04 12:09:51;;;;;;;;;8.67;7.33;;;;;;;;5000206;28;45341;-55
2023/04/04 12:12:16;;;;;;;;;7.00;5.67;;;;;;;;5000202;28;45838;-55
2023/04/04 12:14:41;;;;;;;;;5.67;5.67;;;;;;;;5000350;28;45435;-55
2023/04/04 12:17:07;;;;;;;;;6.00;6.00;;;;;;;;4999711;28;46555;-55
2023/04/04 12:19:39;;;;;;;;;8.67;7.33;;;;;;;;4999620;28;45386;-55
2023/04/04 12:22:04;;;;;;;;;5.00;5.00;;;;;;;;4997953;28;45379;-55
2023/04/04 12:24:30;;;;;;;;;7.67;6.00;;;;;;;;4999500;28;45439;-55
2023/04/04 12:26:57;;;;;;;;;6.67;6.67;;;;;;;;4982722;28;46968;-54
2023/04/04 12:29:24;;;;;;;;;8.00;7.00;;;;;;;;4998839;28;45381;-54
2023/04/04 12:31:50;;;;;;;;;6.33;6.33;;;;;;;;4983009;28;45382;-51
2023/04/04 12:34:17;;;;;;;;;5.67;5.67;;;;;;;;4981549;28;45254;-53
2023/04/04 12:36:45;;;;;;;;;5.75;5.25;;;;;;;;5000918;28;46048;-54
2023/04/04 12:39:11;;;;;;;;;5.33;5.33;;;;;;;;4997833;28;45438;-53
2023/04/04 12:41:46;;;;;;;;;5.00;5.00;;;;;;;;4982065;28;45346;-54
2023/04/04 12:44:11;;;;;;;;;7.00;6.00;;;;;;;;4999759;28;45593;-52
2023/04/04 12:46:40;;;;;;;;;7.00;5.00;;;;;;;;4998192;28;45714;-50
2023/04/04 12:49:07;;;;;;;;;6.33;5.67;;;;;;;;4997596;28;45361;-53
2023/04/04 12:51:34;;;;;;;;;8.00;5.67;;;;;;;;5001640;28;45561;-51
2023/04/04 12:53:59;;;;;;;;;7.00;5.67;;;;;;;;5000832;28;45412;-51
2023/04/04 12:56:26;;;;;;;;;5.33;5.33;;;;;;;;5001487;28;46381;-53
2023/04/04 12:58:51;;;;;;;;;6.00;6.00;;;;;;;;5001717;28;45527;-53
2023/04/04 13:01:16;;;;;;;;;7.33;7.33;;;;;;;;5002135;28;45372;-53
2023/04/04 13:03:42;;;;;;;;;6.00;5.00;;;;;;;;5002164;28;45416;-53
2023/04/04 13:06:11;;;;;;;;;6.33;6.00;;;;;;;;5002089;28;45672;-50
2023/04/04 13:08:47;;;;;;;;;6.00;6.00;;;;;;;;5001590;28;45463;-52
2023/04/04 13:11:12;;;;;;;;;5.00;5.00;;;;;;;;5002474;28;45455;-50
2023/04/04 13:13:39;;;;;;;;;7.00;7.00;;;;;;;;5001942;28;45523;-51
2023/04/04 13:16:06;;;;;;;;;5.67;5.00;;;;;;;;5001261;28;46057;-49
2023/04/04 13:18:40;;;;;;;;;6.67;6.00;;;;;;;;5001844;28;45754;-50
2023/04/04 13:21:08;;;;;;;;;6.00;6.00;;;;;;;;4999421;28;45465;-53
2023/04/04 13:23:36;;;;;;;;;6.00;4.00;;;;;;;;5001793;28;45478;-52
2023/04/04 13:26:03;;;;;;;;;5.00;5.00;;;;;;;;5001875;28;45782;-51
2023/04/04 13:28:28;;;;;;;;;6.33;6.33;;;;;;;;5002608;28;45539;-52
2023/04/04 13:30:53;;;;;;;;;6.33;6.33;;;;;;;;5002935;28;45487;-51
2023/04/04 13:33:19;;;;;;;;;6.00;6.00;;;;;;;;5003037;28;45396;-52
2023/04/04 13:35:44;;;;;;;;;6.00;4.67;;;;;;;;4985957;28;48143;-53
2023/04/04 13:38:10;;;;;;;;;4.67;4.00;;;;;;;;5002526;28;45376;-50
2023/04/04 13:40:35;;;;;;;;;7.00;5.00;;;;;;;;4996573;28;45578;-53
2023/04/04 13:43:00;;;;;;;;;9.33;8.00;;;;;;;;4991251;28;45325;-52
2023/04/04 13:45:25;;;;;;;;;7.00;7.00;;;;;;;;5002375;28;46259;-53
2023/04/04 13:47:51;;;;;;;;;8.00;7.00;;;;;;;;4990328;28;45971;-51
2023/04/04 13:50:17;;;;;;;;;7.00;7.00;;;;;;;;4993474;28;45518;-52
2023/04/04 13:52:42;;;;;;;;;6.67;6.00;;;;;;;;5000181;28;45564;-52
2023/04/04 13:55:08;;;;;;;;;5.67;4.67;;;;;;;;4998545;28;46284;-53
2023/04/04 13:57:33;;;;;;;;;5.00;5.00;;;;;;;;4999097;28;45412;-54
2023/04/04 13:59:58;;;;;;;;;6.67;6.67;;;;;;;;5000149;28;45360;-52
2023/04/04 14:02:24;;;;;;;;;9.00;7.00;;;;;;;;4998865;28;45210;-52
2023/04/04 14:04:49;;;;;;;;;6.67;6.00;;;;;;;;4999921;28;47034;-54
2023/04/04 14:07:14;;;;;;;;;6.67;6.33;;;;;;;;4998860;28;45498;-52
2023/04/04 14:09:40;;;;;;;;;6.67;5.33;;;;;;;;4999637;28;45437;-54
2023/04/04 14:12:06;;;;;;;;;6.00;6.00;;;;;;;;4999198;28;45356;-53
2023/04/04 14:14:32;;;;;;;;;6.33;6.33;;;;;;;;4999441;28;46502;-53
2023/04/04 14:16:57;;;;;;;;;8.00;8.00;;;;;;;;4999459;28;45499;-53
2023/04/04 14:19:22;;;;;;;;;8.00;5.00;;;;;;;;4981330;28;45377;-53
2023/04/04 14:21:48;;;;;;;;;7.33;7.00;;;;;;;;4999010;28;45585;-50
2023/04/04 14:24:13;;;;;;;;;7.33;7.33;;;;;;;;4999065;28;46074;-52
2023/04/04 14:26:38;;;;;;;;;6.67;6.67;;;;;;;;4990616;28;45516;-54
2023/04/04 14:29:04;;;;;;;;;9.33;9.33;;;;;;;;5004546;28;45266;-54
2023/04/04 14:31:31;;;;;;;;;9.33;7.67;;;;;;;;5010721;28;45463;-52
2023/04/04 14:33:56;;;;;;;;;7.33;6.00;;;;;;;;4996004;28;46871;-54
2023/04/04 14:36:23;;;;;;;;;8.67;6.00;;;;;;;;4998589;28;45631;-53
2023/04/04 14:38:48;;;;;;;;;7.33;7.33;;;;;;;;4998819;28;45405;-53
2023/04/04 14:41:15;;;;;;;;;6.00;6.00;;;;;;;;4998380;28;45617;-51
2023/04/04 14:43:40;;;;;;;;;6.33;5.67;;;;;;;;4981364;28;46167;-52
2023/04/04 14:46:05;;;;;;;;;7.00;6.33;;;;;;;;4984664;28;45350;-53
2023/04/04 14:48:30;;;;;;;;;7.67;7.00;;;;;;;;5001834;28;45337;-50
2023/04/04 14:50:55;;;;;;;;;6.00;6.00;;;;;;;;5004233;28;45584;-54
2023/04/04 14:53:21;;;;;;;;;6.00;5.00;;;;;;;;4999663;28;45324;-54
2023/04/04 14:55:46;;;;;;;;;6.33;6.33;;;;;;;;5000289;28;45546;-53
2023/04/04 14:58:11;;;;;;;;;8.00;6.33;;;;;;;;4999643;28;45578;-54
2023/04/04 15:00:37;;;;;;;;;8.33;5.00;;;;;;;;5008441;28;45754;-52
2023/04/04 15:03:02;;;;;;;;;4.33;4.33;;;;;;;;5009113;28;46327;-52
2023/04/04 15:05:27;;;;;;;;;8.00;6.33;;;;;;;;5004827;28;45365;-53
2023/04/04 15:07:54;;;;;;;;;4.33;4.33;;;;;;;;5007192;28;45320;-53
2023/04/04 15:10:19;;;;;;;;;6.00;6.00;;;;;;;;4996420;28;46562;-54
2023/04/04 15:12:45;;;;;;;;;6.00;6.00;;;;;;;;5001087;28;45306;-53
2023/04/04 15:15:11;;;;;;;;;4.00;4.00;;;;;;;;4993488;28;45486;-52
2023/04/04 15:17:37;;;;;;;;;6.00;6.00;;;;;;;;4999446;28;45702;-54
2023/04/04 15:20:02;;;;;;;;;7.00;4.33;;;;;;;;4996286;28;45574;-52
2023/04/04 15:22:27;;;;;;;;;7.00;7.00;;;;;;;;4999522;28;45367;-54
2023/04/04 15:24:54;;;;;;;;;5.33;5.33;;;;;;;;4996983;28;45561;-53
2023/04/04 15:27:20;;;;;;;;;9.33;6.00;;;;;;;;5004961;28;45410;-52
2023/04/04 15:29:45;;;;;;;;;4.67;4.67;;;;;;;;5004658;28;45324;-52
2023/04/04 15:32:10;;;;;;;;;5.00;5.00;;;;;;;;4997339;28;46392;-51
2023/04/04 15:34:35;;;;;;;;;5.00;3.67;;;;;;;;4999674;28;45452;-53
2023/04/04 15:37:03;;;;;;;;;4.67;4.33;;;;;;;;4988369;28;45482;-52
2023/04/04 15:39:28;;;;;;;;;7.67;6.33;;;;;;;;4995297;28;45489;-51
2023/04/04 15:41:53;;;;;;;;;6.67;6.00;;;;;;;;4980216;28;47317;-53
2023/04/04 15:44:19;;;;;;;;;6.33;6.33;;;;;;;;4995916;28;45756;-53
2023/04/04 15:46:44;;;;;;;;;7.33;7.33;;;;;;;;4993707;28;45424;-53
2023/04/04 15:49:09;;;;;;;;;7.00;7.00;;;;;;;;4977066;28;45514;-53
2023/04/04 15:51:36;;;;;;;;;6.00;6.00;;;;;;;;4992970;28;46220;-52
2023/04/04 15:54:01;;;;;;;;;9.00;5.67;;;;;;;;4994903;28;45555;-52
2023/04/04 15:56:27;;;;;;;;;5.00;5.00;;;;;;;;4997095;28;45447;-50
2023/04/04 15:58:52;;;;;;;;;5.67;5.67;;;;;;;;4997525;28;45391;-52
2023/04/04 16:01:17;;;;;;;;;9.00;5.67;;;;;;;;4996418;28;46150;-54
2023/04/04 16:03:43;;;;;;;;;9.33;6.67;;;;;;;;4979151;28;45994;-49
2023/04/04 16:06:11;;;;;;;;;8.00;7.00;;;;;;;;5000495;28;45291;-53
2023/04/04 16:08:37;;;;;;;;;7.33;6.67;;;;;;;;4998325;28;45392;-52
2023/04/04 16:11:03;;;;;;;;;7.67;6.00;;;;;;;;5003127;28;46014;-54
2023/04/04 16:13:28;;;;;;;;;10.00;7.67;;;;;;;;4982862;28;45441;-53
2023/04/04 16:15:54;;;;;;;;;9.00;7.00;;;;;;;;4999266;28;45447;-52
2023/04/04 16:18:19;;;;;;;;;7.67;7.67;;;;;;;;4997024;28;45582;-49
2023/04/04 16:20:44;;;;;;;;;9.67;8.00;;;;;;;;4999669;28;47062;-54
2023/04/04 16:23:10;;;;;;;;;9.00;7.00;;;;;;;;5000534;28;45677;-52
2023/04/04 16:25:35;;;;;;;;;10.33;9.33;;;;;;;;5002779;28;45497;-53
2023/04/04 16:28:00;;;;;;;;;5.67;5.67;;;;;;;;5006279;28;45486;-51
2023/04/04 16:30:27;;;;;;;;;9.33;9.33;;;;;;;;5005271;28;45430;-53
2023/04/04 16:32:52;;;;;;;;;9.67;8.33;;;;;;;;5004224;28;45552;-54
2023/04/04 16:35:17;;;;;;;;;10.33;10.33;;;;;;;;4978408;28;45661;-55
2023/04/04 16:37:43;;;;;;;;;9.33;8.67;;;;;;;;5002786;28;45641;-54
2023/04/04 16:40:08;;;;;;;;;9.33;8.67;;;;;;;;5006431;28;46006;-55
2023/04/04 16:42:34;;;;;;;;;7.00;6.67;;;;;;;;4999172;28;45536;-56
2023/04/04 16:44:59;;;;;;;;;8.67;7.00;;;;;;;;4990600;28;45649;-50
2023/04/04 16:47:24;;;;;;;;;8.67;7.67;;;;;;;;4990600;28;45506;-49
2023/04/04 16:49:50;;;;;;;;;6.67;6.67;;;;;;;;4999390;28;46308;-51
2023/04/04 16:52:15;;;;;;;;;5.33;4.00;;;;;;;;4999746;28;45515;-53
2023/04/04 16:54:43;;;;;;;;;9.00;9.00;;;;;;;;4981480;28;45421;-51
2023/04/04 16:57:09;;;;;;;;;9.67;9.33;;;;;;;;4998683;28;45747;-50
2023/04/04 16:59:37;;;;;;;;;12.33;7.67;;;;;;;;5000246;28;45519;-49
2023/04/04 17:02:07;;;;;;;;;8.67;8.00;;;;;;;;5004147;28;45502;-48
2023/04/04 17:04:32;;;;;;;;;7.33;7.33;;;;;;;;4994189;28;45549;-49
2023/04/04 17:06:57;;;;;;;;;10.33;7.67;;;;;;;;4998006;28;45931;-50
2023/04/04 17:09:22;;;;;;;;;6.33;5.67;;;;;;;;4981720;28;47211;-49
2023/04/04 17:11:47;;;;;;;;;7.00;7.00;;;;;;;;5007283;28;45408;-49
2023/04/04 17:14:13;;;;;;;;;13.50;8.00;;;;;;;;4999953;28;45403;-49
2023/04/04 17:16:38;;;;;;;;;10.00;7.33;;;;;;;;5005006;28;45556;-48
2023/04/04 17:19:03;;;;;;;;;7.00;7.00;;;;;;;;5000621;28;45458;-48
2023/04/04 17:21:30;;;;;;;;;9.33;9.00;;;;;;;;5001456;28;45467;-48
2023/04/04 17:23:56;;;;;;;;;6.67;6.33;;;;;;;;4981926;28;45370;-48
2023/04/04 17:26:21;;;;;;;;;6.00;6.00;;;;;;;;4999468;28;45603;-48
2023/04/04 17:28:46;;;;;;;;;10.67;7.67;;;;;;;;4981775;28;47308;-47
2023/04/04 17:31:11;;;;;;;;;10.33;9.33;;;;;;;;4998525;28;45530;-47
2023/04/04 17:33:36;;;;;;;;;8.67;7.33;;;;;;;;4994348;28;45884;-48
2023/04/04 17:36:02;;;;;;;;;14.33;10.00;;;;;;;;4997656;28;45579;-52
2023/04/04 17:38:29;;;;;;;;;16.33;13.33;;;;;;;;4998659;28;46134;-51
2023/04/04 17:40:55;;;;;;;;;21.67;17.00;;;;;;;;4993831;28;45538;-50
2023/04/04 17:43:20;;;;;;;;;13.00;12.00;;;;;;;;4997550;28;45384;-49
2023/04/04 17:45:45;;;;;;;;;20.00;18.67;;;;;;;;4996782;28;45507;-49
2023/04/04 17:48:11;;;;;;;;;17.00;14.00;;;;;;;;4991776;28;46708;-49
2023/04/04 17:50:36;;;;;;;;;11.33;11.00;;;;;;;;4999230;28;45333;-49
2023/04/04 17:53:01;;;;;;;;;13.00;11.00;;;;;;;;4999491;28;45382;-52
2023/04/04 17:55:27;;;;;;;;;9.33;8.67;;;;;;;;4985444;28;45544;-49
2023/04/04 17:57:53;;;;;;;;;12.33;12.33;;;;;;;;4997720;28;46268;-50
2023/04/04 18:00:18;;;;;;;;;14.33;14.33;;;;;;;;4998294;28;45449;-47
2023/04/04 18:02:44;;;;;;;;;13.67;13.67;;;;;;;;4997206;28;45543;-47
2023/04/04 18:05:09;;;;;;;;;10.67;10.33;;;;;;;;4994510;28;45444;-50
2023/04/04 18:07:34;;;;;;;;;14.67;13.00;;;;;;;;4979606;28;45924;-49
2023/04/04 18:09:59;;;;;;;;;11.00;9.67;;;;;;;;4996749;28;45483;-52
2023/04/04 18:12:28;;;;;;;;;12.00;10.33;;;;;;;;4994388;28;45484;-49
2023/04/04 18:14:53;;;;;;;;;12.00;11.67;;;;;;;;4996328;28;45541;-49
2023/04/04 18:17:19;;;;;;;;;11.67;11.67;;;;;;;;4996399;28;46276;-49
2023/04/04 18:19:45;;;;;;;;;13.67;12.33;;;;;;;;4998320;28;45703;-49
2023/04/04 18:22:10;;;;;;;;;15.00;11.00;;;;;;;;4998331;28;45334;-50
2023/04/04 18:24:36;;;;;;;;;11.33;10.33;;;;;;;;4998284;28;45500;-48
2023/04/04 18:27:01;;;;;;;;;13.67;11.67;;;;;;;;4994478;28;47115;-49
2023/04/04 18:29:29;;;;;;;;;15.33;12.67;;;;;;;;4998069;28;45432;-49
2023/04/04 18:31:54;;;;;;;;;14.33;11.00;;;;;;;;4995584;28;45565;-49
2023/04/04 18:34:20;;;;;;;;;10.00;9.33;;;;;;;;4991295;28;45494;-47
2023/04/04 18:36:45;;;;;;;;;12.00;12.00;;;;;;;;4991531;28;45411;-52
2023/04/04 18:39:10;;;;;;;;;16.00;14.33;;;;;;;;4993370;28;45576;-52
2023/04/04 18:41:36;;;;;;;;;14.67;12.33;;;;;;;;5000576;28;45465;-53
2023/04/04 18:44:01;;;;;;;;;14.00;12.33;;;;;;;;4996143;28;45871;-53
2023/04/04 18:46:26;;;;;;;;;16.33;14.67;;;;;;;;4996914;28;46392;-54
2023/04/04 18:48:51;;;;;;;;;15.67;15.00;;;;;;;;4980135;28;45367;-52
2023/04/04 18:51:17;;;;;;;;;25.67;21.67;;;;;;;;4992949;28;45499;-53
2023/04/04 18:53:42;;;;;;;;;26.33;17.00;;;;;;;;4993649;28;45721;-52
2023/04/04 18:56:07;;;;;;;;;23.67;22.33;;;;;;;;4994928;28;45508;-54
2023/04/04 18:58:32;;;;;;;;;15.67;14.00;;;;;;;;5000260;28;45498;-53
2023/04/04 19:00:58;;;;;;;;;14.33;14.00;;;;;;;;4991932;28;45671;-53
2023/04/04 19:03:23;;;;;;;;;15.67;15.67;;;;;;;;4974121;28;49530;-53
2023/04/04 19:05:49;;;;;;;;;13.00;13.00;;;;;;;;4998043;28;46278;-54
2023/04/04 19:08:16;;;;;;;;;17.67;17.33;;;;;;;;4995473;28;46543;-54
2023/04/04 19:10:46;;;;;;;;;12.67;12.00;;;;;;;;4996217;28;45608;-53
2023/04/04 19:13:11;;;;;;;;;14.33;13.00;;;;;;;;4963723;28;46472;-52
2023/04/04 19:15:36;;;;;;;;;14.67;14.67;;;;;;;;4993203;28;46259;-52
2023/04/04 19:18:02;;;;;;;;;16.33;14.00;;;;;;;;4994254;28;45399;-54
2023/04/04 19:20:27;;;;;;;;;21.00;18.67;;;;;;;;4983171;28;45521;-52
2023/04/04 19:22:52;;;;;;;;;22.33;18.67;;;;;;;;4984892;28;45578;-53
2023/04/04 19:25:19;;;;;;;;;22.67;21.33;;;;;;;;4988888;28;46232;-53
2023/04/04 19:27:44;;;;;;;;;21.00;19.00;;;;;;;;4995516;28;45448;-52
2023/04/04 19:30:30;;;;;;;;;25.00;21.00;;;;;;;;4995317;28;45681;-51